Time;durP1;ratioP1;P1;durP2;ratioP2;P2;SDS_P1;SDS_P2;PMS_P1;PMS_P2;Temp;Humidity;BMP_temperature;BMP_pressure;BME280_temperature;BME280_humidity;BME280_pressure;Samples;Min_cycle;Max_cycle;Signal;HPM_P1;HPM_P2
2021/12/04 00:01:10;;;;;;;0.50;0.20;;;;;;;;;;5054636;28;20494;-64
2021/12/04 00:03:39;;;;;;;0.20;0.20;;;;;;;;;;5054328;28;20080;-64
2021/12/04 00:06:10;;;;;;;0.70;0.20;;;;;;;;;;5054489;28;20021;-64
2021/12/04 00:08:36;;;;;;;0.28;0.17;;;;;;;;;;5054466;28;20440;-64
2021/12/04 00:11:02;;;;;;;0.30;0.30;;;;;;;;;;5052995;28;20024;-63
2021/12/04 00:13:27;;;;;;;2.28;0.22;;;;;;;;;;5054233;28;20077;-63
2021/12/04 00:15:53;;;;;;;0.77;0.22;;;;;;;;;;5054340;28;20025;-64
2021/12/04 00:18:18;;;;;;;0.53;0.30;;;;;;;;;;5054345;28;20025;-64
2021/12/04 00:20:43;;;;;;;0.43;0.37;;;;;;;;;;5054217;28;20883;-64
2021/12/04 00:23:08;;;;;;;0.95;0.40;;;;;;;;;;5054040;28;20032;-64
2021/12/04 00:25:34;;;;;;;0.98;0.28;;;;;;;;;;5053956;28;20029;-64
2021/12/04 00:27:59;;;;;;;0.10;0.10;;;;;;;;;;5054174;28;20384;-64
2021/12/04 00:30:26;;;;;;;0.82;0.30;;;;;;;;;;5053940;28;20021;-64
2021/12/04 00:33:09;;;;;;;0.63;0.20;;;;;;;;;;5053959;28;20465;-64
2021/12/04 00:35:43;;;;;;;0.98;0.52;;;;;;;;;;5053707;28;20096;-64
2021/12/04 00:43:20;;;;;;;0.70;0.30;;;;;;;;;;5053876;28;20100;-64
2021/12/04 00:49:21;;;;;;;0.47;0.43;;;;;;;;;;5050870;28;20293;-64
2021/12/04 00:51:50;;;;;;;1.27;0.20;;;;;;;;;;5051180;28;20037;-64
2021/12/04 00:54:16;;;;;;;2.63;0.20;;;;;;;;;;5050790;28;20255;-64
2021/12/04 00:56:42;;;;;;;1.27;0.30;;;;;;;;;;5051156;28;20024;-64
2021/12/04 00:59:07;;;;;;;2.08;0.30;;;;;;;;;;5050916;28;20020;-64
2021/12/04 01:01:32;;;;;;;1.05;0.40;;;;;;;;;;5050745;28;20078;-64
2021/12/04 01:03:57;;;;;;;0.88;0.32;;;;;;;;;;5050818;28;20045;-64
2021/12/04 01:06:23;;;;;;;0.47;0.30;;;;;;;;;;5050592;28;20400;-64
2021/12/04 01:08:48;;;;;;;0.40;0.30;;;;;;;;;;5050942;28;20389;-64
2021/12/04 01:11:13;;;;;;;1.38;0.20;;;;;;;;;;5050634;28;20567;-64
2021/12/04 01:13:38;;;;;;;0.40;0.10;;;;;;;;;;5050656;28;20033;-64
2021/12/04 01:16:04;;;;;;;0.37;0.13;;;;;;;;;;5050650;28;20021;-64
2021/12/04 01:18:29;;;;;;;0.30;0.25;;;;;;;;;;5050509;28;20262;-64
2021/12/04 01:20:54;;;;;;;0.90;0.27;;;;;;;;;;5050564;28;20112;-64
2021/12/04 01:23:19;;;;;;;1.10;0.20;;;;;;;;;;5050266;28;20258;-64
2021/12/04 01:25:44;;;;;;;0.70;0.30;;;;;;;;;;5051396;28;20033;-64
2021/12/04 01:28:10;;;;;;;1.02;0.40;;;;;;;;;;5052836;28;20261;-64
2021/12/04 01:30:35;;;;;;;0.25;0.22;;;;;;;;;;5052824;28;20540;-63
2021/12/04 01:33:00;;;;;;;0.98;0.30;;;;;;;;;;5052745;28;20021;-64
2021/12/04 01:35:25;;;;;;;0.55;0.20;;;;;;;;;;5052600;28;20017;-63
2021/12/04 01:37:51;;;;;;;1.27;0.20;;;;;;;;;;5052802;28;20446;-63
2021/12/04 01:40:17;;;;;;;0.63;0.30;;;;;;;;;;5052548;28;20408;-63
2021/12/04 01:42:43;;;;;;;0.60;0.30;;;;;;;;;;5052592;28;20775;-64
2021/12/04 01:45:08;;;;;;;0.50;0.30;;;;;;;;;;5051994;28;20025;-64
2021/12/04 01:47:33;;;;;;;0.28;0.10;;;;;;;;;;5052598;28;20020;-64
2021/12/04 01:50:00;;;;;;;0.67;0.30;;;;;;;;;;5052656;28;20036;-64
2021/12/04 01:52:25;;;;;;;1.52;0.20;;;;;;;;;;5052398;28;20329;-64
2021/12/04 01:54:51;;;;;;;0.47;0.20;;;;;;;;;;5052493;28;20095;-64
2021/12/04 01:57:16;;;;;;;0.57;0.30;;;;;;;;;;5052365;28;20433;-64
2021/12/04 01:59:42;;;;;;;0.60;0.30;;;;;;;;;;5052323;28;20383;-64
2021/12/04 02:02:08;;;;;;;1.88;0.20;;;;;;;;;;5059736;23;20727;-64
2021/12/04 02:04:33;;;;;;;0.68;0.25;;;;;;;;;;5052159;28;20033;-64
2021/12/04 02:07:03;;;;;;;0.63;0.22;;;;;;;;;;5052146;28;20383;-65
2021/12/04 02:09:28;;;;;;;0.65;0.35;;;;;;;;;;5052111;28;20017;-64
2021/12/04 02:11:54;;;;;;;0.75;0.25;;;;;;;;;;5052294;28;20067;-64
2021/12/04 02:14:19;;;;;;;0.82;0.30;;;;;;;;;;5051944;28;20029;-64
2021/12/04 02:16:45;;;;;;;1.87;0.30;;;;;;;;;;5052231;28;20068;-64
2021/12/04 02:19:10;;;;;;;0.38;0.30;;;;;;;;;;5052088;28;20253;-65
2021/12/04 02:21:35;;;;;;;0.30;0.10;;;;;;;;;;5052019;28;20020;-64
2021/12/04 02:24:00;;;;;;;0.30;0.20;;;;;;;;;;5052076;28;20108;-64
2021/12/04 02:26:25;;;;;;;0.93;0.13;;;;;;;;;;5051911;28;20590;-63
2021/12/04 02:28:50;;;;;;;0.37;0.20;;;;;;;;;;5052068;28;20249;-63
2021/12/04 02:31:16;;;;;;;0.57;0.38;;;;;;;;;;5051892;28;20597;-64
2021/12/04 02:33:41;;;;;;;0.57;0.20;;;;;;;;;;5051992;28;20017;-63
2021/12/04 02:36:07;;;;;;;0.80;0.30;;;;;;;;;;5052000;28;20028;-64
2021/12/04 02:38:33;;;;;;;0.30;0.17;;;;;;;;;;5051962;28;20024;-64
2021/12/04 02:41:01;;;;;;;1.73;0.70;;;;;;;;;;5052122;28;20025;-64
2021/12/04 02:43:30;;;;;;;0.57;0.35;;;;;;;;;;5051632;28;20551;-64
2021/12/04 02:45:55;;;;;;;0.57;0.20;;;;;;;;;;5051913;28;20021;-64
2021/12/04 02:48:21;;;;;;;0.10;0.10;;;;;;;;;;5033828;28;20017;-64
2021/12/04 02:50:47;;;;;;;0.63;0.20;;;;;;;;;;5051838;28;20560;-64
2021/12/04 02:53:12;;;;;;;0.52;0.20;;;;;;;;;;5033836;28;20250;-64
2021/12/04 02:55:38;;;;;;;0.22;0.13;;;;;;;;;;5051666;28;20013;-64
2021/12/04 02:58:04;;;;;;;0.90;0.20;;;;;;;;;;5054766;28;20021;-64
2021/12/04 03:00:29;;;;;;;2.50;0.30;;;;;;;;;;5055558;28;20024;-64
2021/12/04 03:02:56;;;;;;;1.65;0.40;;;;;;;;;;5055479;28;20083;-64
2021/12/04 03:05:24;;;;;;;0.30;0.28;;;;;;;;;;5055325;28;20032;-64
2021/12/04 03:07:50;;;;;;;0.40;0.20;;;;;;;;;;5055477;28;20040;-64
2021/12/04 03:10:15;;;;;;;0.57;0.10;;;;;;;;;;5055382;28;20045;-64
2021/12/04 03:12:41;;;;;;;0.83;0.40;;;;;;;;;;5055426;28;20047;-64
2021/12/04 03:15:07;;;;;;;0.80;0.30;;;;;;;;;;5055316;28;20627;-64
2021/12/04 03:17:32;;;;;;;1.00;0.43;;;;;;;;;;5055418;28;20032;-64
2021/12/04 03:19:57;;;;;;;1.13;0.50;;;;;;;;;;5055293;28;20028;-64
2021/12/04 03:22:23;;;;;;;0.55;0.20;;;;;;;;;;5055166;28;20016;-63
2021/12/04 03:24:49;;;;;;;0.30;0.10;;;;;;;;;;5055090;28;20368;-64
2021/12/04 03:27:16;;;;;;;0.52;0.30;;;;;;;;;;5055120;28;20036;-64
2021/12/04 03:29:47;;;;;;;0.50;0.20;;;;;;;;;;5055408;28;20013;-64
2021/12/04 03:35:21;;;;;;;0.40;0.20;;;;;;;;;;5055113;28;20423;-64
2021/12/04 03:40:37;;;;;;;0.63;0.32;;;;;;;;;;5054847;28;20025;-64
2021/12/04 03:43:04;;;;;;;0.20;0.20;;;;;;;;;;5054827;28;20067;-63
2021/12/04 03:45:29;;;;;;;1.00;0.30;;;;;;;;;;5054624;28;20025;-64
2021/12/04 03:48:04;;;;;;;0.77;0.60;;;;;;;;;;5054881;28;20020;-64
2021/12/04 03:50:29;;;;;;;0.70;0.28;;;;;;;;;;5054623;28;20021;-65
2021/12/04 03:52:54;;;;;;;0.80;0.27;;;;;;;;;;5054735;28;20104;-64
2021/12/04 03:55:19;;;;;;;0.40;0.20;;;;;;;;;;5054520;28;20028;-65
2021/12/04 03:57:45;;;;;;;0.57;0.20;;;;;;;;;;5054685;28;20260;-64
2021/12/04 04:00:19;;;;;;;0.65;0.10;;;;;;;;;;5054441;28;20706;-64
2021/12/04 04:02:44;;;;;;;1.27;0.28;;;;;;;;;;5036430;28;20079;-64
2021/12/04 04:05:10;;;;;;;2.88;0.30;;;;;;;;;;5054293;28;20468;-64
2021/12/04 04:07:35;;;;;;;0.70;0.20;;;;;;;;;;5054312;28;20013;-63
2021/12/04 04:10:01;;;;;;;0.68;0.20;;;;;;;;;;5053653;28;20031;-63
2021/12/04 04:12:26;;;;;;;0.90;0.10;;;;;;;;;;5054241;28;20036;-64
2021/12/04 04:14:51;;;;;;;0.80;0.15;;;;;;;;;;5054350;28;20039;-64
2021/12/04 04:17:17;;;;;;;1.17;0.10;;;;;;;;;;5054100;28;20028;-64
2021/12/04 04:19:42;;;;;;;1.27;0.20;;;;;;;;;;5054209;28;20066;-64
2021/12/04 04:22:08;;;;;;;0.93;0.37;;;;;;;;;;5054131;28;20258;-64
2021/12/04 04:24:33;;;;;;;0.82;0.30;;;;;;;;;;5053971;28;20452;-64
2021/12/04 04:26:59;;;;;;;0.85;0.20;;;;;;;;;;5054007;28;20436;-64
2021/12/04 04:29:25;;;;;;;0.68;0.30;;;;;;;;;;5053942;28;20138;-64
2021/12/04 04:31:50;;;;;;;2.38;0.35;;;;;;;;;;5053952;28;20028;-64
2021/12/04 04:34:25;;;;;;;0.55;0.30;;;;;;;;;;5053686;28;20403;-65
2021/12/04 04:37:12;;;;;;;0.65;0.20;;;;;;;;;;5053943;28;20017;-64
2021/12/04 05:14:36;;;;;;;0.57;0.20;;;;;;;;;;5053333;28;20025;-64
2021/12/04 05:17:11;;;;;;;0.20;0.15;;;;;;;;;;5053035;28;20029;-64
2021/12/04 05:19:42;;;;;;;0.90;0.40;;;;;;;;;;5052624;28;20017;-64
2021/12/04 05:22:09;;;;;;;0.55;0.20;;;;;;;;;;5052390;28;20388;-64
2021/12/04 05:24:34;;;;;;;0.43;0.30;;;;;;;;;;5052867;28;20100;-64
2021/12/04 05:26:59;;;;;;;1.33;0.20;;;;;;;;;;5052852;28;20052;-64
2021/12/04 05:29:25;;;;;;;0.32;0.10;;;;;;;;;;5052730;28;20252;-63
2021/12/04 05:31:50;;;;;;;0.10;0.10;;;;;;;;;;5052822;28;20500;-64
2021/12/04 05:34:15;;;;;;;0.20;0.20;;;;;;;;;;5052672;28;20041;-64
2021/12/04 05:36:41;;;;;;;1.23;0.30;;;;;;;;;;5052782;28;20029;-64
2021/12/04 05:39:07;;;;;;;1.00;0.32;;;;;;;;;;5052669;28;20032;-65
2021/12/04 05:41:32;;;;;;;0.73;0.30;;;;;;;;;;5052533;28;20016;-64
2021/12/04 05:44:00;;;;;;;0.68;0.20;;;;;;;;;;5052493;28;20017;-64
2021/12/04 05:46:34;;;;;;;0.32;0.15;;;;;;;;;;5052268;28;20013;-64
2021/12/04 05:49:08;;;;;;;0.22;0.20;;;;;;;;;;5052583;28;20009;-64
2021/12/04 05:51:48;;;;;;;0.43;0.20;;;;;;;;;;5052445;28;20020;-64
2021/12/04 05:56:41;;;;;;;0.20;0.10;;;;;;;;;;5052487;28;20017;-64
2021/12/04 05:59:07;;;;;;;1.77;0.53;;;;;;;;;;5052367;28;20479;-63
2021/12/04 06:01:32;;;;;;;0.68;0.30;;;;;;;;;;5052238;28;20332;-64
2021/12/04 06:03:57;;;;;;;0.60;0.13;;;;;;;;;;5052186;28;20048;-64
2021/12/04 06:06:22;;;;;;;0.13;0.10;;;;;;;;;;5052180;28;20021;-64
2021/12/04 06:08:48;;;;;;;0.30;0.20;;;;;;;;;;5052352;28;20016;-64
2021/12/04 06:11:13;;;;;;;0.20;0.17;;;;;;;;;;5052102;28;20024;-64
2021/12/04 06:13:39;;;;;;;0.57;0.22;;;;;;;;;;5052163;28;20096;-64
2021/12/04 06:16:04;;;;;;;0.28;0.15;;;;;;;;;;5052256;28;20021;-64
2021/12/04 06:18:31;;;;;;;0.40;0.20;;;;;;;;;;5052044;28;20548;-64
2021/12/04 06:23:40;;;;;;;0.25;0.20;;;;;;;;;;5052026;28;20100;-64
2021/12/04 06:26:06;;;;;;;1.20;0.20;;;;;;;;;;5052161;28;20111;-64
2021/12/04 06:28:31;;;;;;;0.60;0.08;;;;;;;;;;5051981;28;20009;-64
2021/12/04 06:30:58;;;;;;;1.75;0.20;;;;;;;;;;5052050;28;20559;-64
2021/12/04 06:33:24;;;;;;;0.65;0.10;;;;;;;;;;5055671;28;20092;-64
2021/12/04 06:35:49;;;;;;;0.20;0.20;;;;;;;;;;5056143;28;20105;-64
2021/12/04 06:38:16;;;;;;;0.93;0.30;;;;;;;;;;5056013;28;20713;-64
2021/12/04 06:40:41;;;;;;;0.75;0.13;;;;;;;;;;5056098;28;20033;-64
2021/12/04 06:43:08;;;;;;;0.70;0.20;;;;;;;;;;5056231;28;20035;-64
2021/12/04 06:45:35;;;;;;;0.50;0.15;;;;;;;;;;5054925;28;20079;-64
2021/12/04 06:48:05;;;;;;;0.22;0.13;;;;;;;;;;5055990;28;20484;-65
2021/12/04 06:53:08;;;;;;;0.30;0.17;;;;;;;;;;5056122;28;20021;-64
2021/12/04 06:55:39;;;;;;;0.60;0.17;;;;;;;;;;5055647;28;20067;-64
2021/12/04 06:58:04;;;;;;;0.65;0.13;;;;;;;;;;5055828;28;20407;-64
2021/12/04 07:00:30;;;;;;;0.60;0.10;;;;;;;;;;5055645;28;20021;-64
2021/12/04 07:02:55;;;;;;;0.43;0.10;;;;;;;;;;5034216;28;20076;-64
2021/12/04 07:05:20;;;;;;;0.68;0.20;;;;;;;;;;5035428;28;20053;-65
2021/12/04 07:07:45;;;;;;;0.30;0.07;;;;;;;;;;5034391;28;20024;-63
2021/12/04 07:10:11;;;;;;;0.60;0.30;;;;;;;;;;5035531;28;20350;-63
2021/12/04 07:12:36;;;;;;;1.02;0.35;;;;;;;;;;5035492;28;20262;-63
2021/12/04 07:15:01;;;;;;;0.30;0.10;;;;;;;;;;5035448;28;20068;-63
2021/12/04 07:17:26;;;;;;;1.85;0.40;;;;;;;;;;5035345;28;20029;-64
2021/12/04 07:19:52;;;;;;;0.57;0.20;;;;;;;;;;5035514;28;20079;-64
2021/12/04 07:22:17;;;;;;;1.03;0.30;;;;;;;;;;5035173;28;20029;-64
2021/12/04 07:24:42;;;;;;;0.68;0.30;;;;;;;;;;5035329;28;20270;-64
2021/12/04 07:27:07;;;;;;;0.33;0.10;;;;;;;;;;5035293;28;20032;-65
2021/12/04 07:29:33;;;;;;;0.73;0.10;;;;;;;;;;5035157;28;20028;-64
2021/12/04 07:31:58;;;;;;;0.10;0.10;;;;;;;;;;5035208;28;20029;-64
2021/12/04 07:34:23;;;;;;;0.13;0.00;;;;;;;;;;5035098;28;20064;-63
2021/12/04 07:36:48;;;;;;;1.02;0.10;;;;;;;;;;5035079;28;20017;-63
2021/12/04 07:39:14;;;;;;;1.27;0.28;;;;;;;;;;5034998;28;20029;-63
2021/12/04 07:41:42;;;;;;;0.40;0.20;;;;;;;;;;5035025;28;20029;-63
2021/12/04 07:44:08;;;;;;;0.75;0.28;;;;;;;;;;5033751;28;20025;-63
2021/12/04 07:46:34;;;;;;;2.17;0.30;;;;;;;;;;5034845;28;20018;-64
2021/12/04 07:48:59;;;;;;;0.82;0.30;;;;;;;;;;5034812;28;20123;-63
2021/12/04 07:51:24;;;;;;;1.40;0.23;;;;;;;;;;5035052;28;20021;-64
2021/12/04 07:53:49;;;;;;;1.07;0.20;;;;;;;;;;5035054;28;20618;-64
2021/12/04 07:56:15;;;;;;;1.03;0.33;;;;;;;;;;5034659;28;20290;-64
2021/12/04 07:58:42;;;;;;;1.67;0.28;;;;;;;;;;5034726;28;20243;-64
2021/12/04 08:01:07;;;;;;;1.65;0.50;;;;;;;;;;5034629;28;20025;-63
2021/12/04 08:03:33;;;;;;;0.52;0.08;;;;;;;;;;5050559;28;20055;-63
2021/12/04 08:05:58;;;;;;;0.15;0.00;;;;;;;;;;5054483;28;20032;-64
2021/12/04 08:08:23;;;;;;;0.50;0.00;;;;;;;;;;5054309;28;20059;-64
2021/12/04 08:10:48;;;;;;;0.60;0.30;;;;;;;;;;5054362;28;20017;-64
2021/12/04 08:13:14;;;;;;;1.33;0.17;;;;;;;;;;5054268;28;20024;-64
2021/12/04 08:15:39;;;;;;;1.43;0.10;;;;;;;;;;5054204;28;20047;-64
2021/12/04 08:18:06;;;;;;;0.73;0.40;;;;;;;;;;5054386;28;20241;-64
2021/12/04 08:20:31;;;;;;;0.43;0.17;;;;;;;;;;5054352;28;20024;-64
2021/12/04 08:22:57;;;;;;;0.50;0.20;;;;;;;;;;5054209;28;20025;-63
2021/12/04 08:25:22;;;;;;;0.73;0.10;;;;;;;;;;5053899;28;20025;-63
2021/12/04 08:27:49;;;;;;;0.10;0.08;;;;;;;;;;5054109;28;20250;-64
2021/12/04 08:30:17;;;;;;;0.95;0.10;;;;;;;;;;5053921;28;20428;-64
2021/12/04 08:32:42;;;;;;;0.30;0.10;;;;;;;;;;5054068;28;20017;-64
2021/12/04 08:35:09;;;;;;;0.75;0.30;;;;;;;;;;5053838;28;20036;-64
2021/12/04 08:37:34;;;;;;;0.93;0.50;;;;;;;;;;5053689;28;20046;-64
2021/12/04 08:39:59;;;;;;;1.17;0.30;;;;;;;;;;5036281;28;20115;-64
2021/12/04 08:42:26;;;;;;;0.60;0.20;;;;;;;;;;5035675;28;20017;-64
2021/12/04 08:44:52;;;;;;;0.73;0.20;;;;;;;;;;5053833;28;20381;-63
2021/12/04 08:47:17;;;;;;;0.73;0.30;;;;;;;;;;5053499;28;20094;-63
2021/12/04 08:49:43;;;;;;;0.60;0.20;;;;;;;;;;5053627;28;20449;-64
2021/12/04 08:52:09;;;;;;;1.02;0.22;;;;;;;;;;5053606;28;20025;-63
2021/12/04 08:54:36;;;;;;;0.20;0.00;;;;;;;;;;5053101;28;20029;-64
2021/12/04 08:57:01;;;;;;;0.90;0.20;;;;;;;;;;5053541;28;20090;-63
2021/12/04 08:59:27;;;;;;;0.45;0.10;;;;;;;;;;5053598;28;20075;-64
2021/12/04 09:01:52;;;;;;;0.80;0.17;;;;;;;;;;5053265;28;20017;-64
2021/12/04 09:04:23;;;;;;;0.43;0.10;;;;;;;;;;5053154;28;20024;-64
2021/12/04 09:06:49;;;;;;;0.10;0.00;;;;;;;;;;5053311;28;20380;-64
2021/12/04 09:09:15;;;;;;;1.38;0.32;;;;;;;;;;5053268;28;20017;-64
2021/12/04 09:11:45;;;;;;;1.25;0.20;;;;;;;;;;5053116;28;20021;-64
2021/12/04 09:14:11;;;;;;;0.80;0.10;;;;;;;;;;5053173;28;20025;-64
2021/12/04 09:16:36;;;;;;;0.40;0.20;;;;;;;;;;5053191;28;20027;-64
2021/12/04 09:19:02;;;;;;;0.73;0.10;;;;;;;;;;5053081;28;20043;-64
2021/12/04 09:21:28;;;;;;;0.32;0.20;;;;;;;;;;5052921;28;20017;-64
2021/12/04 09:24:03;;;;;;;1.05;0.43;;;;;;;;;;5052978;28;20025;-64
2021/12/04 09:26:44;;;;;;;0.20;0.20;;;;;;;;;;5052910;28;20037;-64
2021/12/04 09:29:24;;;;;;;0.30;0.05;;;;;;;;;;5052875;28;20445;-64
2021/12/04 10:04:40;;;;;;;0.13;0.00;;;;;;;;;;5052141;28;20060;-64
2021/12/04 10:13:09;;;;;;;0.68;0.20;;;;;;;;;;5052250;28;20020;-64
2021/12/04 10:18:21;;;;;;;0.20;0.10;;;;;;;;;;5052522;28;20063;-64
2021/12/04 10:34:11;;;;;;;0.77;0.10;;;;;;;;;;5051928;28;20111;-64
2021/12/04 10:36:39;;;;;;;0.23;0.10;;;;;;;;;;5052042;28;20475;-63
2021/12/04 10:39:08;;;;;;;0.35;0.15;;;;;;;;;;5051895;28;20258;-64
2021/12/04 10:41:43;;;;;;;0.75;0.05;;;;;;;;;;5051817;28;20013;-63
2021/12/04 10:44:15;;;;;;;0.28;0.10;;;;;;;;;;5033873;28;20021;-64
2021/12/04 10:46:51;;;;;;;0.10;0.10;;;;;;;;;;5051992;28;20024;-64
2021/12/04 10:49:27;;;;;;;0.40;0.20;;;;;;;;;;5051821;28;20487;-64
2021/12/04 10:52:01;;;;;;;0.70;0.25;;;;;;;;;;5051893;28;20100;-64
2021/12/04 10:54:31;;;;;;;;;;;;;;;;;;5052173;28;20043;-64
2021/12/04 10:57:37;;;;;;;1.92;0.20;;;;;;;;;;5051843;28;19916;-64
2021/12/04 11:00:22;;;;;;;0.93;0.15;;;;;;;;;;5051773;28;20056;-64
2021/12/04 11:02:52;;;;;;;0.30;0.08;;;;;;;;;;5051674;28;20049;-64
2021/12/04 11:05:51;;;;;;;0.40;0.13;;;;;;;;;;5051557;28;20029;-64
2021/12/04 11:19:55;;;;;;;1.13;0.20;;;;;;;;;;5055136;28;20032;-64
2021/12/04 11:22:35;;;;;;;0.25;0.20;;;;;;;;;;5054966;28;20040;-63
2021/12/04 11:41:30;;;;;;;0.90;0.10;;;;;;;;;;5055108;28;20480;-64
2021/12/04 11:44:04;;;;;;;0.95;0.30;;;;;;;;;;5054841;28;20070;-64
2021/12/04 11:46:46;;;;;;;1.30;0.20;;;;;;;;;;5054820;28;20088;-64
2021/12/04 11:49:18;;;;;;;0.82;0.45;;;;;;;;;;5054786;28;20096;-64
2021/12/04 11:51:46;;;;;;;0.30;0.20;;;;;;;;;;5054772;28;20092;-65
2021/12/04 11:54:11;;;;;;;0.82;0.10;;;;;;;;;;5054908;28;20021;-64
2021/12/04 11:56:36;;;;;;;0.40;0.10;;;;;;;;;;5054729;28;20043;-64
2021/12/04 11:59:02;;;;;;;0.97;0.30;;;;;;;;;;5054619;28;20039;-64
2021/12/04 12:01:30;;;;;;;0.57;0.10;;;;;;;;;;5054512;28;20249;-64
2021/12/04 12:03:57;;;;;;;0.10;0.10;;;;;;;;;;5054374;28;20118;-64
2021/12/04 12:06:33;;;;;;;0.40;0.10;;;;;;;;;;5054296;28;20039;-64
2021/12/04 12:09:12;;;;;;;0.88;0.10;;;;;;;;;;5054436;28;20040;-64
2021/12/04 12:11:45;;;;;;;0.60;0.20;;;;;;;;;;5054349;28;20027;-63
2021/12/04 12:14:12;;;;;;;0.60;0.15;;;;;;;;;;5054278;28;20017;-64
2021/12/04 12:16:45;;;;;;;0.15;0.03;;;;;;;;;;5036467;28;20060;-63
2021/12/04 12:19:20;;;;;;;0.10;0.10;;;;;;;;;;5054346;28;20043;-63
2021/12/04 12:22:23;;;;;;;0.50;0.10;;;;;;;;;;5054521;28;20091;-64
2021/12/04 12:27:34;;;;;;;0.30;0.20;;;;;;;;;;5054594;28;20028;-63
2021/12/04 12:36:09;;;;;;;0.43;0.13;;;;;;;;;;5054107;28;20025;-64
2021/12/04 12:38:46;;;;;;;0.70;0.10;;;;;;;;;;5053955;28;20455;-64
2021/12/04 12:41:15;;;;;;;0.47;0.20;;;;;;;;;;5053811;28;20376;-64
2021/12/04 12:43:40;;;;;;;1.15;0.30;;;;;;;;;;5053929;28;20052;-65
2021/12/04 12:46:06;;;;;;;1.25;0.20;;;;;;;;;;5053816;28;20076;-64
2021/12/04 12:48:41;;;;;;;1.42;0.20;;;;;;;;;;5053633;28;20078;-64
2021/12/04 12:51:07;;;;;;;0.80;0.17;;;;;;;;;;5035806;28;20021;-64
2021/12/04 12:53:38;;;;;;;0.47;0.15;;;;;;;;;;5053378;28;20115;-64
2021/12/04 12:56:06;;;;;;;0.77;0.17;;;;;;;;;;5053558;28;20079;-63
2021/12/04 12:58:38;;;;;;;1.23;0.47;;;;;;;;;;5053445;28;20024;-63
2021/12/04 13:12:18;;;;;;;0.55;0.22;;;;;;;;;;5053415;28;20020;-64
2021/12/04 13:14:45;;;;;;;1.30;0.17;;;;;;;;;;5053585;28;20028;-65
2021/12/04 13:17:11;;;;;;;0.88;0.13;;;;;;;;;;5053167;28;20151;-64
2021/12/04 13:19:37;;;;;;;0.20;0.05;;;;;;;;;;5053017;28;20060;-64
2021/12/04 13:22:06;;;;;;;0.50;0.10;;;;;;;;;;5053199;28;20017;-64
2021/12/04 13:24:33;;;;;;;0.73;0.15;;;;;;;;;;5052896;28;20375;-64
2021/12/04 13:29:33;;;;;;;0.28;0.05;;;;;;;;;;5052860;28;20047;-63
2021/12/04 13:31:59;;;;;;;0.60;0.15;;;;;;;;;;5052897;28;20516;-64
2021/12/04 13:34:26;;;;;;;0.65;0.20;;;;;;;;;;5052769;28;20025;-64
2021/12/04 13:36:53;;;;;;;0.10;0.03;;;;;;;;;;5052819;28;20025;-64
2021/12/04 13:39:19;;;;;;;2.72;0.47;;;;;;;;;;5052688;28;20123;-64
2021/12/04 13:41:45;;;;;;;0.10;0.10;;;;;;;;;;5052166;28;20483;-64
2021/12/04 13:44:13;;;;;;;0.77;0.10;;;;;;;;;;5052782;28;20063;-64
2021/12/04 13:46:38;;;;;;;0.70;0.15;;;;;;;;;;5052459;28;20013;-64
2021/12/04 13:49:04;;;;;;;0.60;0.30;;;;;;;;;;5052666;28;20066;-63
2021/12/04 13:51:29;;;;;;;0.10;0.10;;;;;;;;;;5052456;28;20705;-63
2021/12/04 13:53:54;;;;;;;0.93;0.10;;;;;;;;;;5052655;28;20032;-64
2021/12/04 13:56:22;;;;;;;0.40;0.10;;;;;;;;;;5052277;28;20806;-64
2021/12/04 13:58:57;;;;;;;0.40;0.10;;;;;;;;;;5052449;28;20499;-64
2021/12/04 14:01:22;;;;;;;0.65;0.10;;;;;;;;;;5052294;28;20058;-65
2021/12/04 14:03:48;;;;;;;0.30;0.13;;;;;;;;;;5052200;28;20037;-64
2021/12/04 14:06:15;;;;;;;0.90;0.10;;;;;;;;;;5052156;28;20017;-65
2021/12/04 14:08:40;;;;;;;0.90;0.08;;;;;;;;;;5052399;28;20025;-64
2021/12/04 14:11:06;;;;;;;0.22;0.00;;;;;;;;;;5052331;28;20023;-65
2021/12/04 14:13:31;;;;;;;0.28;0.10;;;;;;;;;;5052464;28;20028;-64
2021/12/04 14:15:56;;;;;;;2.40;0.52;;;;;;;;;;5052264;28;20021;-63
2021/12/04 14:18:22;;;;;;;0.45;0.10;;;;;;;;;;5052075;28;20029;-63
2021/12/04 14:20:55;;;;;;;1.88;0.10;;;;;;;;;;5051238;28;20522;-63
2021/12/04 14:23:22;;;;;;;0.40;0.10;;;;;;;;;;5034070;28;20483;-64
2021/12/04 14:25:53;;;;;;;0.20;0.03;;;;;;;;;;5052084;28;20052;-64
2021/12/04 14:28:19;;;;;;;1.27;0.45;;;;;;;;;;5051910;28;20013;-64
2021/12/04 14:30:47;;;;;;;0.35;0.10;;;;;;;;;;5052442;28;20013;-64
2021/12/04 14:33:15;;;;;;;0.70;0.22;;;;;;;;;;5051996;28;20009;-64
2021/12/04 14:35:41;;;;;;;1.05;0.20;;;;;;;;;;5052034;28;20025;-65
2021/12/04 14:38:08;;;;;;;0.43;0.20;;;;;;;;;;5051984;28;20049;-64
2021/12/04 14:40:36;;;;;;;1.42;0.10;;;;;;;;;;5051898;28;20483;-64
2021/12/04 14:43:03;;;;;;;0.13;0.10;;;;;;;;;;5051857;28;20028;-64
2021/12/04 14:45:30;;;;;;;0.73;0.20;;;;;;;;;;5051738;28;20087;-64
2021/12/04 14:47:56;;;;;;;0.88;0.30;;;;;;;;;;5051999;28;20025;-64
2021/12/04 14:50:22;;;;;;;0.57;0.10;;;;;;;;;;5051718;28;20380;-64
2021/12/04 14:52:49;;;;;;;0.93;0.20;;;;;;;;;;5052861;28;20020;-64
2021/12/04 14:55:14;;;;;;;0.40;0.25;;;;;;;;;;5055747;28;20435;-64
2021/12/04 14:57:40;;;;;;;0.30;0.13;;;;;;;;;;5055785;28;20495;-64
2021/12/04 15:00:11;;;;;;;0.22;0.10;;;;;;;;;;5055814;28;20256;-64
2021/12/04 15:02:36;;;;;;;1.55;0.30;;;;;;;;;;5055525;28;20041;-64
2021/12/04 15:05:03;;;;;;;0.60;0.10;;;;;;;;;;5037626;28;20043;-64
2021/12/04 15:07:31;;;;;;;1.35;0.20;;;;;;;;;;5055480;28;20023;-63
2021/12/04 15:09:56;;;;;;;0.95;0.17;;;;;;;;;;5055612;28;20032;-63
2021/12/04 15:12:26;;;;;;;0.13;0.10;;;;;;;;;;5055310;28;20013;-63
2021/12/04 15:14:55;;;;;;;0.85;0.15;;;;;;;;;;5055508;28;20539;-63
2021/12/04 15:17:20;;;;;;;0.70;0.10;;;;;;;;;;5054492;28;20128;-63
2021/12/04 15:19:46;;;;;;;1.08;0.32;;;;;;;;;;5055441;28;20484;-63
2021/12/04 15:22:16;;;;;;;0.45;0.10;;;;;;;;;;5055265;28;20021;-64
2021/12/04 15:24:43;;;;;;;0.43;0.30;;;;;;;;;;5055891;28;20017;-65
2021/12/04 15:27:10;;;;;;;0.40;0.10;;;;;;;;;;5055255;28;20032;-64
2021/12/04 15:29:35;;;;;;;0.85;0.17;;;;;;;;;;5055111;28;20021;-64
2021/12/04 15:32:05;;;;;;;0.70;0.10;;;;;;;;;;5055285;28;20039;-64
2021/12/04 15:34:37;;;;;;;0.25;0.10;;;;;;;;;;5054970;28;20024;-65
2021/12/04 15:37:05;;;;;;;0.80;0.20;;;;;;;;;;5055019;28;20024;-64
2021/12/04 15:39:34;;;;;;;0.47;0.00;;;;;;;;;;5054965;28;20032;-64
2021/12/04 15:55:21;;;;;;;0.40;0.10;;;;;;;;;;5012382;28;20165;-64
2021/12/04 15:57:56;;;;;;;0.50;0.10;;;;;;;;;;5012609;28;20034;-64
2021/12/04 16:00:24;;;;;;;0.95;0.13;;;;;;;;;;5012337;28;20046;-64
2021/12/04 16:02:54;;;;;;;0.35;0.15;;;;;;;;;;5012337;28;20042;-65
2021/12/04 16:05:21;;;;;;;1.65;0.70;;;;;;;;;;5011156;28;20355;-64
2021/12/04 16:08:07;;;;;;;0.25;0.15;;;;;;;;;;5012330;28;20064;-64
2021/12/04 16:10:34;;;;;;;0.55;0.10;;;;;;;;;;5012300;28;20554;-64
2021/12/04 16:12:59;;;;;;;1.08;0.25;;;;;;;;;;5012210;28;20113;-64
2021/12/04 16:15:25;;;;;;;1.38;0.20;;;;;;;;;;5012102;28;20121;-64
2021/12/04 16:17:51;;;;;;;0.17;0.10;;;;;;;;;;5012242;28;20034;-63
2021/12/04 16:20:18;;;;;;;1.77;0.20;;;;;;;;;;5011993;28;20532;-63
2021/12/04 16:22:45;;;;;;;1.20;0.20;;;;;;;;;;5012134;28;20062;-63
2021/12/04 16:25:20;;;;;;;0.20;0.10;;;;;;;;;;5015249;28;20030;-63
2021/12/04 16:30:39;;;;;;;0.93;0.20;;;;;;;;;;4992094;28;20034;-64
2021/12/04 16:33:52;;;;;;;0.30;0.10;;;;;;;;;;4992388;28;20126;-64
2021/12/04 16:36:06;;;;;;;0.63;0.10;;;;;;;;;;4986987;28;20871;-64
2021/12/04 16:38:32;;;;;;;0.82;0.30;;;;;;;;;;4992180;28;20034;-64
2021/12/04 16:40:58;;;;;;;0.73;0.20;;;;;;;;;;4992268;28;20041;-64
2021/12/04 16:43:35;;;;;;;0.63;0.20;;;;;;;;;;4991989;28;20058;-64
2021/12/04 16:46:02;;;;;;;1.17;0.22;;;;;;;;;;4992117;28;20034;-65
2021/12/04 16:48:33;;;;;;;1.73;0.35;;;;;;;;;;4991786;28;20601;-64
2021/12/04 16:56:24;;;;;;;0.57;0.10;;;;;;;;;;4991887;28;20069;-64
2021/12/04 16:58:50;;;;;;;0.25;0.20;;;;;;;;;;4991956;28;20026;-64
2021/12/04 17:01:16;;;;;;;0.85;0.30;;;;;;;;;;4991690;28;20038;-64
2021/12/04 17:03:41;;;;;;;0.40;0.17;;;;;;;;;;4991652;28;20054;-64
2021/12/04 17:06:07;;;;;;;0.20;0.17;;;;;;;;;;4991733;28;20395;-64
2021/12/04 17:08:32;;;;;;;0.57;0.13;;;;;;;;;;5045508;28;20527;-64
2021/12/04 17:10:57;;;;;;;0.73;0.20;;;;;;;;;;5053269;28;20048;-64
2021/12/04 17:13:22;;;;;;;0.35;0.10;;;;;;;;;;5053031;28;20013;-64
2021/12/04 17:15:48;;;;;;;0.70;0.30;;;;;;;;;;5053187;28;20043;-64
2021/12/04 17:18:19;;;;;;;0.77;0.13;;;;;;;;;;5053041;28;20246;-64
2021/12/04 17:20:46;;;;;;;0.63;0.20;;;;;;;;;;5053189;28;20023;-64
2021/12/04 17:23:12;;;;;;;0.40;0.10;;;;;;;;;;5052983;28;20021;-63
2021/12/04 17:25:40;;;;;;;0.10;0.10;;;;;;;;;;5052885;28;20096;-63
2021/12/04 17:28:05;;;;;;;1.60;0.22;;;;;;;;;;5053133;28;20013;-63
2021/12/04 17:30:30;;;;;;;0.30;0.10;;;;;;;;;;5052820;28;20028;-64
2021/12/04 17:32:56;;;;;;;0.45;0.20;;;;;;;;;;5035065;28;20021;-64
2021/12/04 17:35:22;;;;;;;1.05;0.20;;;;;;;;;;5052649;28;20524;-64
2021/12/04 17:37:49;;;;;;;0.35;0.10;;;;;;;;;;5052918;28;20108;-64
2021/12/04 17:40:14;;;;;;;1.20;0.20;;;;;;;;;;5052664;28;20025;-64
2021/12/04 17:42:40;;;;;;;0.57;0.10;;;;;;;;;;5052684;28;20017;-65
2021/12/04 17:45:06;;;;;;;0.10;0.10;;;;;;;;;;5052595;28;20029;-64
2021/12/04 17:47:32;;;;;;;0.40;0.10;;;;;;;;;;5052457;28;20191;-64
2021/12/04 17:49:58;;;;;;;0.30;0.20;;;;;;;;;;5053029;28;20099;-64